createdAt,value
2019-02-06T00:01:44.699Z,21.27
2019-02-06T00:04:11.136Z,21.30
2019-02-06T00:06:37.257Z,20.63
2019-02-06T00:09:10.536Z,21.80
2019-02-06T00:11:38.537Z,19.70
2019-02-06T00:14:04.565Z,20.97
2019-02-06T00:16:30.707Z,20.30
2019-02-06T00:18:57.130Z,20.60
2019-02-06T00:21:23.214Z,21.40
2019-02-06T00:23:49.226Z,21.90
2019-02-06T00:26:15.224Z,19.80
2019-02-06T00:28:41.214Z,21.10
2019-02-06T00:31:07.286Z,20.67
2019-02-06T00:33:33.303Z,22.05
2019-02-06T00:35:59.314Z,21.17
2019-02-06T00:38:25.352Z,21.03
2019-02-06T00:40:52.073Z,21.70
2019-02-06T00:43:18.192Z,20.67
2019-02-06T00:45:44.706Z,23.60
2019-02-06T00:48:10.715Z,25.10
2019-02-06T00:50:36.745Z,21.57
2019-02-06T00:53:02.980Z,23.80
2019-02-06T00:55:28.984Z,22.25
2019-02-06T00:57:54.981Z,21.68
2019-02-06T01:00:21.947Z,20.53
2019-02-06T01:02:49.455Z,21.00
2019-02-06T01:05:16.257Z,21.65
2019-02-06T01:07:42.347Z,21.77
2019-02-06T01:10:11.242Z,20.97
2019-02-06T01:12:37.423Z,23.35
2019-02-06T01:15:04.224Z,20.90
2019-02-06T01:17:30.354Z,22.22
2019-02-06T01:19:56.483Z,22.48
2019-02-06T01:22:22.477Z,21.05
2019-02-06T01:24:49.068Z,22.40
2019-02-06T01:27:15.056Z,21.60
2019-02-06T01:29:41.081Z,22.40
2019-02-06T01:32:07.205Z,22.30
2019-02-06T01:34:33.211Z,19.92
2019-02-06T01:36:59.237Z,21.93
2019-02-06T01:39:25.235Z,21.50
2019-02-06T01:41:51.362Z,21.12
2019-02-06T01:44:17.353Z,22.10
2019-02-06T01:46:43.878Z,21.02
2019-02-06T01:49:09.882Z,22.73
2019-02-06T01:51:36.063Z,21.70
2019-02-06T01:54:02.159Z,20.70
2019-02-06T01:56:28.152Z,20.77
2019-02-06T01:58:54.165Z,21.67
2019-02-06T02:01:20.265Z,21.42
2019-02-06T02:03:46.271Z,20.60
2019-02-06T02:06:12.277Z,23.30
2019-02-06T02:08:40.789Z,21.50
2019-02-06T02:11:06.834Z,22.77
2019-02-06T04:31:53.868Z,19.32
2019-02-06T04:34:19.937Z,21.62
2019-02-06T04:36:46.237Z,21.35
2019-02-06T04:39:12.283Z,22.07
2019-02-06T04:41:38.830Z,21.02
2019-02-06T04:44:05.110Z,22.62
2019-02-06T04:46:31.263Z,22.80
2019-02-06T04:48:57.242Z,21.27
2019-02-06T04:51:23.272Z,21.07
2019-02-06T04:53:49.262Z,19.87
2019-02-06T04:56:15.312Z,20.37
2019-02-06T04:58:41.320Z,23.35
2019-02-06T05:01:07.427Z,20.62
2019-02-06T05:03:33.752Z,20.62
2019-02-06T05:05:59.803Z,20.92
2019-02-06T05:08:25.871Z,19.80
2019-02-06T05:10:51.969Z,20.05
2019-02-06T05:13:17.960Z,21.23
2019-02-06T05:15:43.969Z,22.23
2019-02-06T05:18:09.975Z,19.67
2019-02-06T05:20:37.011Z,20.40
2019-02-06T05:23:05.048Z,22.35
2019-02-06T05:25:31.146Z,21.40
2019-02-06T05:27:57.174Z,20.43
2019-02-06T05:30:23.160Z,21.70
2019-02-06T05:32:49.168Z,21.60
2019-02-06T05:35:15.199Z,23.38
2019-02-06T05:37:41.175Z,23.52
2019-02-06T05:40:09.386Z,22.87
2019-02-06T05:42:35.439Z,22.42
2019-02-06T05:45:02.255Z,22.42
2019-02-06T05:47:28.237Z,22.62
2019-02-06T05:49:54.260Z,22.53
2019-02-06T05:52:20.330Z,22.75
2019-02-06T05:54:46.336Z,21.20
2019-02-06T05:57:12.342Z,22.52
2019-02-06T05:59:38.336Z,24.05
2019-02-06T06:02:04.332Z,22.43
2019-02-06T06:04:30.420Z,24.15
2019-02-06T06:06:57.134Z,24.40
2019-02-06T06:09:23.157Z,22.42
2019-02-06T06:11:49.241Z,21.70
2019-02-06T06:14:15.219Z,21.60
2019-02-06T06:16:41.247Z,23.80
2019-02-06T06:19:07.250Z,22.37
2019-02-06T06:21:33.283Z,20.90
2019-02-06T06:23:59.285Z,22.75
2019-02-06T06:26:25.319Z,21.23
2019-02-06T06:28:51.974Z,23.20
2019-02-06T06:31:17.967Z,27.55
2019-02-06T06:33:43.989Z,22.32
2019-02-06T06:36:09.991Z,22.40
2019-02-06T06:38:36.032Z,22.52
2019-02-06T06:41:02.095Z,24.32
2019-02-06T06:43:28.114Z,22.75
2019-02-06T06:45:54.183Z,23.92
2019-02-06T06:48:20.219Z,23.53
2019-02-06T06:50:46.787Z,23.38
2019-02-06T06:53:13.128Z,26.55
2019-02-06T06:55:39.433Z,25.40
2019-02-06T06:58:05.450Z,25.43
2019-02-06T07:00:32.738Z,24.98
2019-02-06T07:02:58.859Z,23.87
2019-02-06T07:05:25.251Z,24.45
2019-02-06T07:07:52.192Z,23.42
2019-02-06T07:10:18.731Z,27.87
2019-02-06T07:12:44.887Z,24.70
2019-02-06T07:15:19.892Z,23.42
2019-02-06T07:17:46.081Z,24.00
2019-02-06T07:20:14.623Z,23.80
2019-02-06T07:22:40.623Z,23.83
2019-02-06T07:25:08.029Z,24.35
2019-02-06T07:27:34.443Z,24.85
2019-02-06T07:30:00.566Z,36.77
2019-02-06T07:32:26.767Z,39.55
2019-02-06T07:34:52.787Z,41.98
2019-02-06T07:37:18.815Z,39.42
2019-02-06T07:39:44.881Z,37.17
2019-02-06T07:42:10.880Z,33.73
2019-02-06T07:44:36.907Z,42.00
2019-02-06T07:47:03.123Z,51.85
2019-02-06T07:49:29.410Z,36.38
2019-02-06T07:51:55.476Z,27.82
2019-02-06T07:54:21.582Z,27.80
2019-02-06T07:56:47.575Z,24.70
2019-02-06T07:59:13.677Z,25.12
2019-02-06T08:01:39.864Z,25.37
2019-02-06T08:04:05.909Z,26.40
2019-02-06T08:06:31.894Z,26.75
2019-02-06T08:08:57.919Z,27.20
2019-02-06T08:11:23.960Z,25.62
2019-02-06T08:13:50.112Z,27.75
2019-02-06T08:16:16.113Z,26.42
2019-02-06T08:18:42.266Z,26.27
2019-02-06T08:21:08.352Z,26.48
2019-02-06T08:23:34.414Z,24.92
2019-02-06T08:26:00.484Z,27.93
2019-02-06T08:28:26.464Z,25.72
2019-02-06T08:30:52.897Z,26.02
2019-02-06T08:33:18.933Z,26.45
2019-02-06T08:35:45.083Z,26.27
2019-02-06T08:38:11.138Z,24.15
2019-02-06T08:40:37.250Z,26.37
2019-02-06T08:43:03.468Z,26.90
2019-02-06T08:45:40.681Z,26.97
2019-02-06T08:48:06.760Z,27.02
2019-02-06T08:50:33.016Z,27.77
2019-02-06T08:52:59.296Z,26.20
2019-02-06T08:55:27.300Z,28.35
2019-02-06T08:57:53.535Z,23.90
2019-02-06T09:00:28.125Z,27.07
2019-02-06T09:02:54.203Z,29.32
2019-02-06T09:05:20.233Z,29.20
2019-02-06T09:07:46.670Z,30.12
2019-02-06T09:10:29.360Z,28.83
2019-02-06T09:12:56.429Z,28.62
2019-02-06T09:15:22.645Z,27.90
2019-02-06T09:17:48.734Z,28.70
2019-02-06T09:20:17.967Z,27.82
2019-02-06T09:22:44.298Z,30.35
2019-02-06T09:25:16.521Z,29.50
2019-02-06T09:27:42.808Z,27.75
2019-02-06T09:30:12.659Z,29.27
2019-02-06T09:32:39.106Z,27.85
2019-02-06T09:35:05.914Z,27.65
2019-02-06T09:37:32.023Z,26.65
2019-02-06T09:40:03.736Z,28.57
2019-02-06T09:42:29.868Z,28.40
2019-02-06T09:44:55.925Z,26.87
2019-02-06T09:47:41.908Z,31.80
2019-02-06T09:50:11.823Z,26.93
2019-02-06T09:52:40.047Z,30.43
2019-02-06T09:55:06.427Z,28.95
2019-02-06T09:57:35.356Z,30.27
2019-02-06T10:00:00.384Z,30.72
2019-02-06T10:02:26.391Z,29.85
2019-02-06T10:04:52.439Z,27.52
2019-02-06T10:07:18.515Z,29.82
2019-02-06T10:09:44.569Z,28.67
2019-02-06T10:12:11.953Z,28.57
2019-02-06T10:14:38.228Z,30.85
2019-02-06T10:17:04.328Z,29.40
2019-02-06T10:19:30.451Z,31.45
2019-02-06T10:21:56.474Z,30.77
2019-02-06T10:24:22.500Z,29.15
2019-02-06T10:26:48.514Z,27.17
2019-02-06T10:29:14.798Z,27.13
2019-02-06T10:31:40.783Z,29.90
2019-02-06T10:34:07.251Z,29.25
2019-02-06T10:36:33.262Z,29.35
2019-02-06T10:38:59.775Z,28.87
2019-02-06T10:41:25.777Z,29.35
2019-02-06T10:43:51.783Z,29.00
2019-02-06T10:46:18.460Z,29.80
2019-02-06T10:48:44.643Z,28.27
2019-02-06T10:51:10.656Z,29.60
2019-02-06T10:53:37.278Z,31.90
2019-02-06T10:56:03.841Z,27.80
2019-02-06T10:58:29.959Z,28.30
2019-02-06T11:00:57.446Z,29.23
2019-02-06T11:03:23.467Z,30.33
2019-02-06T11:05:49.726Z,28.70
2019-02-06T11:08:15.893Z,28.97
2019-02-06T11:10:41.940Z,28.80
2019-02-06T11:13:08.041Z,32.07
2019-02-06T11:15:34.594Z,29.03
2019-02-06T11:18:00.783Z,30.40
2019-02-06T11:20:29.319Z,27.83
2019-02-06T11:22:55.379Z,31.53
2019-02-06T11:25:21.719Z,32.27
2019-02-06T11:27:47.763Z,30.97
2019-02-06T11:30:20.083Z,28.80
2019-02-06T11:32:46.522Z,30.00
2019-02-06T11:35:12.985Z,29.67
2019-02-06T11:37:38.995Z,31.10
2019-02-06T11:40:11.453Z,30.53
2019-02-06T11:42:37.492Z,29.70
2019-02-06T11:45:07.349Z,31.20
2019-02-06T11:47:33.367Z,30.93
2019-02-06T11:50:05.621Z,31.57
2019-02-06T11:52:31.621Z,29.27
2019-02-06T11:54:57.708Z,29.23
2019-02-06T11:57:24.361Z,30.07
2019-02-06T11:59:53.035Z,33.53
2019-02-06T12:02:20.297Z,31.00
2019-02-06T12:04:46.386Z,29.30
2019-02-06T12:07:12.405Z,30.13
2019-02-06T12:09:38.882Z,29.23
2019-02-06T12:12:04.996Z,30.90
2019-02-06T12:14:31.003Z,31.13
2019-02-06T12:16:57.101Z,32.63
2019-02-06T12:19:23.107Z,30.80
2019-02-06T12:21:49.125Z,31.77
2019-02-06T12:24:15.155Z,30.90
2019-02-06T12:26:41.168Z,30.57
2019-02-06T12:29:07.235Z,31.90
2019-02-06T12:31:34.784Z,30.17
2019-02-06T12:34:00.951Z,33.40
2019-02-06T12:36:26.970Z,30.80
2019-02-06T12:38:53.925Z,29.43
2019-02-06T12:41:20.193Z,33.77
2019-02-06T12:43:46.309Z,32.67
2019-02-06T12:46:12.368Z,29.13
2019-02-06T12:48:38.402Z,31.70
2019-02-06T12:51:04.753Z,29.83
2019-02-06T12:53:30.875Z,30.10
2019-02-06T12:55:57.137Z,29.13
2019-02-06T12:58:26.021Z,30.20
2019-02-06T13:00:51.102Z,30.60
2019-02-06T13:03:17.215Z,28.07
2019-02-06T13:05:43.324Z,29.23
2019-02-06T13:08:09.458Z,29.77
2019-02-06T13:10:35.607Z,31.10
2019-02-06T13:13:02.506Z,31.30
2019-02-06T13:15:28.876Z,29.60
2019-02-06T13:17:54.924Z,31.00
2019-02-06T13:20:32.416Z,29.97
2019-02-06T13:22:58.425Z,31.07
2019-02-06T13:25:24.858Z,30.00
2019-02-06T13:27:50.861Z,29.70
2019-02-06T13:30:27.164Z,28.90
2019-02-06T13:32:53.687Z,27.57
2019-02-06T13:35:19.943Z,27.70
2019-02-06T13:37:46.035Z,27.60
2019-02-06T13:40:15.146Z,30.73
2019-02-06T13:42:41.276Z,31.47
2019-02-06T13:45:23.427Z,28.10
2019-02-06T13:47:49.630Z,30.13
2019-02-06T13:50:22.115Z,26.50
2019-02-06T13:52:47.058Z,29.00
2019-02-06T13:55:14.951Z,27.80
2019-02-06T13:57:40.915Z,27.37
2019-02-06T14:00:13.655Z,27.33
2019-02-06T14:02:40.297Z,29.30
2019-02-06T14:05:06.954Z,27.40
2019-02-06T14:07:33.022Z,26.90
2019-02-06T14:09:59.035Z,28.47
2019-02-06T14:12:25.075Z,25.30
2019-02-06T14:14:51.096Z,25.83
2019-02-06T14:17:18.367Z,28.80
2019-02-06T14:19:44.634Z,25.07
2019-02-06T14:22:11.308Z,24.90
2019-02-06T14:24:41.196Z,23.67
2019-02-06T14:27:12.003Z,27.17
2019-02-06T14:30:01.492Z,25.73
2019-02-06T14:32:37.356Z,25.00
2019-02-06T14:35:24.134Z,24.57
2019-02-06T14:38:10.681Z,24.80
2019-02-06T14:40:49.461Z,26.50
2019-02-06T14:43:21.850Z,25.20
2019-02-06T14:46:03.761Z,25.13
2019-02-06T14:48:45.673Z,22.97
2019-02-06T14:51:15.636Z,22.43
2019-02-06T14:53:45.443Z,22.77
2019-02-06T14:56:21.094Z,21.27
2019-02-06T14:58:53.669Z,22.07
2019-02-06T15:01:31.694Z,21.60
2019-02-06T15:04:11.572Z,21.43
2019-02-06T15:06:47.587Z,23.50
2019-02-06T15:09:34.386Z,24.40
2019-02-06T15:12:16.198Z,25.70
2019-02-06T15:14:55.293Z,26.67
2019-02-06T15:17:37.510Z,26.83
2019-02-06T15:20:23.555Z,24.13
2019-02-06T15:23:13.479Z,23.97
2019-02-06T15:25:58.056Z,25.73
2019-02-06T15:28:33.617Z,24.30
2019-02-06T15:31:12.973Z,25.33
2019-02-06T15:33:42.811Z,26.30
2019-02-06T15:36:15.461Z,24.90
2019-02-06T15:39:19.154Z,25.90
2019-02-06T15:41:52.073Z,24.60
2019-02-06T15:44:24.743Z,25.30
2019-02-06T15:47:01.118Z,25.07
2019-02-06T15:49:36.755Z,24.47
2019-02-06T15:52:18.916Z,25.43
2019-02-06T15:54:48.751Z,24.03
2019-02-06T15:57:43.145Z,24.77
2019-02-06T16:00:18.792Z,25.10
2019-02-06T16:03:06.804Z,24.53
2019-02-06T16:05:53.574Z,25.30
2019-02-06T16:08:26.156Z,23.47
2019-02-06T16:11:02.102Z,22.90
2019-02-06T16:13:43.852Z,24.93
2019-02-06T16:16:30.560Z,24.13
2019-02-06T16:19:34.224Z,24.93
2019-02-06T16:22:12.939Z,25.17
2019-02-06T16:24:45.427Z,24.17
2019-02-06T16:27:18.524Z,23.00
2019-02-06T16:30:00.340Z,25.87
2019-02-06T16:32:28.998Z,24.07
2019-02-06T16:35:15.671Z,25.43
2019-02-06T16:37:54.216Z,25.10
2019-02-06T16:40:46.660Z,26.90
2019-02-06T16:43:43.811Z,25.30
2019-02-06T16:46:26.097Z,26.77
2019-02-06T16:49:04.718Z,26.07
2019-02-06T16:51:34.573Z,29.03
2019-02-06T16:54:25.557Z,26.97
2019-02-06T16:57:23.089Z,29.07
2019-02-06T16:59:55.835Z,28.40
2019-02-06T17:02:59.598Z,31.40
2019-02-06T17:05:38.737Z,30.10
2019-02-06T17:08:17.876Z,29.53
2019-02-06T17:11:00.332Z,28.10
2019-02-06T17:13:53.461Z,30.20
2019-02-06T17:16:43.053Z,29.17
2019-02-06T17:19:21.430Z,29.30
2019-02-06T17:22:23.460Z,29.33
2019-02-06T17:25:11.068Z,31.27
2019-02-06T17:27:57.460Z,28.33
2019-02-06T17:30:42.832Z,28.30
2019-02-06T17:33:24.398Z,29.33
2019-02-06T17:36:06.097Z,26.50
2019-02-06T17:38:44.512Z,26.17
2019-02-06T17:41:23.143Z,28.70
2019-02-06T17:44:12.565Z,54.23
2019-02-06T17:46:41.615Z,42.77
2019-02-06T17:49:14.420Z,27.23
2019-02-06T17:52:04.063Z,30.33
2019-02-06T17:55:10.478Z,27.20
2019-02-06T17:57:36.615Z,25.40
2019-02-06T18:00:17.930Z,27.37
2019-02-06T18:02:44.055Z,27.43
2019-02-06T18:05:10.111Z,27.40
2019-02-06T18:07:36.153Z,26.20
2019-02-06T18:10:06.053Z,26.50
2019-02-06T18:12:32.087Z,24.63
2019-02-06T18:14:58.408Z,26.40
2019-02-06T18:17:24.523Z,25.07
2019-02-06T18:19:50.579Z,27.37
2019-02-06T18:22:16.723Z,28.97
2019-02-06T18:24:42.784Z,29.37
2019-02-06T18:27:10.097Z,27.00
2019-02-06T18:29:36.300Z,27.60
2019-02-06T18:32:03.442Z,25.87
2019-02-06T18:34:29.458Z,27.57
2019-02-06T18:36:56.012Z,25.20
2019-02-06T18:39:22.143Z,27.47
2019-02-06T18:41:48.271Z,25.73
2019-02-06T18:44:14.370Z,27.70
2019-02-06T18:46:40.507Z,25.17
2019-02-06T18:49:06.590Z,24.03
2019-02-06T18:51:33.083Z,26.10
2019-02-06T18:53:59.112Z,25.37
2019-02-06T18:56:25.144Z,27.20
2019-02-06T18:58:51.164Z,26.30
2019-02-06T19:01:17.416Z,26.93
2019-02-06T19:03:44.241Z,24.80
2019-02-06T19:06:10.789Z,24.43
2019-02-06T19:08:36.990Z,27.00
2019-02-06T19:11:04.412Z,27.20
2019-02-06T19:13:30.411Z,26.33
2019-02-06T19:15:56.947Z,27.70
2019-02-06T19:18:23.029Z,26.63
2019-02-06T19:20:49.067Z,25.17
2019-02-06T19:23:16.442Z,27.23
2019-02-06T19:25:43.939Z,29.90
2019-02-06T19:28:10.234Z,27.90
2019-02-06T19:30:39.200Z,24.77
2019-02-06T19:33:08.754Z,25.10
2019-02-06T19:35:35.059Z,25.20
2019-02-06T19:38:04.389Z,26.00
2019-02-06T19:40:30.548Z,24.03
2019-02-06T19:43:02.196Z,26.00
2019-02-06T19:45:26.012Z,26.33
2019-02-06T19:47:57.263Z,27.20
2019-02-06T19:50:31.015Z,25.03
2019-02-06T19:52:58.656Z,25.23
2019-02-06T19:55:25.196Z,25.03
2019-02-06T19:57:51.247Z,25.23
2019-02-06T20:00:23.899Z,25.93
2019-02-06T20:02:50.475Z,35.80
2019-02-06T20:05:18.916Z,29.67
2019-02-06T20:07:45.248Z,37.70
2019-02-06T20:10:23.824Z,30.43
2019-02-06T20:12:50.388Z,25.67
2019-02-06T20:15:18.108Z,25.65
2019-02-06T20:17:44.352Z,26.40
2019-02-06T20:20:13.953Z,25.00
2019-02-06T20:22:40.276Z,25.13
2019-02-06T20:25:09.952Z,26.57
2019-02-06T20:27:36.026Z,26.75
2019-02-06T20:30:05.920Z,24.57
2019-02-06T20:32:32.038Z,27.80
2019-02-06T20:34:58.046Z,27.00
2019-02-06T20:37:26.315Z,27.70
2019-02-06T20:39:52.323Z,26.33
2019-02-06T20:42:19.469Z,25.47
2019-02-06T20:44:48.108Z,27.52
2019-02-06T20:47:16.195Z,25.32
2019-02-06T20:49:42.243Z,28.42
2019-02-06T20:52:08.451Z,26.52
2019-02-06T20:54:34.437Z,27.60
2019-02-06T20:57:11.836Z,27.30
2019-02-06T20:59:31.216Z,25.90
2019-02-06T21:01:58.489Z,26.07
2019-02-06T21:04:25.571Z,27.50
2019-02-06T21:06:52.664Z,25.75
2019-02-06T21:09:19.415Z,28.40
2019-02-06T21:11:47.661Z,62.87
2019-02-06T21:14:13.723Z,37.78
2019-02-06T21:17:00.734Z,27.63
2019-02-06T21:19:28.249Z,29.43
2019-02-06T21:21:54.694Z,46.98
2019-02-06T21:24:22.183Z,26.37
2019-02-06T21:26:50.158Z,32.48
2019-02-06T21:29:16.305Z,27.07
2019-02-06T21:31:46.105Z,26.48
2019-02-06T21:34:12.326Z,27.40
2019-02-06T21:36:38.320Z,30.00
2019-02-06T21:39:06.736Z,27.82
2019-02-06T21:41:32.758Z,28.90
2019-02-06T21:43:59.096Z,26.27
2019-02-06T21:46:25.107Z,37.40
2019-02-06T21:48:51.277Z,32.00
2019-02-06T21:51:17.266Z,28.62
2019-02-06T21:53:43.291Z,23.93
2019-02-06T21:56:09.289Z,25.90
2019-02-06T21:58:35.732Z,27.15
2019-02-06T22:01:01.960Z,27.62
2019-02-06T22:03:28.074Z,27.50
2019-02-06T22:05:54.153Z,26.73
2019-02-06T22:08:20.228Z,27.30
2019-02-06T22:10:46.271Z,26.23
2019-02-06T22:13:12.316Z,28.67
2019-02-06T22:15:38.424Z,30.02
2019-02-06T22:18:04.767Z,26.20
2019-02-06T22:20:30.874Z,29.50
2019-02-06T22:22:56.856Z,27.70
2019-02-06T22:25:23.027Z,25.20
2019-02-06T22:27:50.677Z,24.50
2019-02-06T22:30:19.866Z,26.02
2019-02-06T22:32:45.960Z,26.40
2019-02-06T22:35:12.185Z,25.77
2019-02-06T22:37:38.675Z,25.15
2019-02-06T22:40:08.181Z,28.12
2019-02-06T22:42:34.220Z,27.27
2019-02-06T22:45:00.296Z,26.30
2019-02-06T22:47:26.323Z,28.07
2019-02-06T22:49:52.334Z,26.48
2019-02-06T22:52:18.434Z,25.97
2019-02-06T22:54:44.451Z,25.80
2019-02-06T22:57:10.770Z,25.80
2019-02-06T22:59:36.763Z,24.87
2019-02-06T23:02:04.060Z,26.80
2019-02-06T23:04:30.084Z,27.37
2019-02-06T23:06:56.390Z,24.47
2019-02-06T23:09:22.492Z,28.00
2019-02-06T23:11:48.511Z,27.73
2019-02-06T23:14:18.293Z,26.50
2019-02-06T23:16:42.540Z,25.55
2019-02-06T23:19:08.563Z,26.25
2019-02-06T23:21:34.662Z,26.90
2019-02-06T23:24:00.670Z,26.45
2019-02-06T23:26:26.651Z,27.10
2019-02-06T23:28:52.679Z,25.40
2019-02-06T23:31:18.683Z,27.62
2019-02-06T23:33:44.687Z,26.60
2019-02-06T23:36:11.181Z,28.50
2019-02-06T23:38:37.190Z,27.58
2019-02-06T23:41:03.153Z,29.67
2019-02-06T23:43:29.154Z,27.53
2019-02-06T23:45:55.151Z,26.68
2019-02-06T23:48:21.476Z,28.40
2019-02-06T23:50:47.472Z,28.00
2019-02-06T23:53:13.455Z,27.60
2019-02-06T23:55:39.866Z,26.65
2019-02-06T23:58:05.844Z,25.50
